createdAt,value
2022-10-05T00:00:21.943Z,6.10
2022-10-05T00:02:45.406Z,5.88
2022-10-05T00:05:34.043Z,6.53
2022-10-05T00:08:03.110Z,6.22
2022-10-05T00:10:25.730Z,6.57
2022-10-05T00:12:49.307Z,6.27
2022-10-05T00:15:13.174Z,6.45
2022-10-05T00:17:35.672Z,6.70
2022-10-05T00:19:58.232Z,6.60
2022-10-05T00:22:29.938Z,6.55
2022-10-05T00:24:59.110Z,6.70
2022-10-05T00:27:27.112Z,6.95
2022-10-05T00:29:51.391Z,7.13
2022-10-05T00:32:14.200Z,7.03
2022-10-05T00:34:37.330Z,8.10
2022-10-05T00:36:59.936Z,7.70
2022-10-05T00:39:22.512Z,7.85
2022-10-05T00:41:53.630Z,8.15
2022-10-05T00:44:40.966Z,7.80
2022-10-05T00:47:51.160Z,7.90
2022-10-05T00:50:25.867Z,6.10
2022-10-05T00:53:22.698Z,5.78
2022-10-05T00:55:54.465Z,6.93
2022-10-05T00:58:30.531Z,7.60
2022-10-05T01:01:05.258Z,7.18
2022-10-05T01:03:47.691Z,7.70
2022-10-05T01:06:28.372Z,8.00
2022-10-05T01:09:02.506Z,8.18
2022-10-05T01:11:43.399Z,7.65
2022-10-05T01:14:15.000Z,8.27
2022-10-05T01:16:41.294Z,8.00
2022-10-05T01:19:06.851Z,7.65
2022-10-05T01:21:35.483Z,8.05
2022-10-05T01:24:28.594Z,8.57
2022-10-05T01:26:53.943Z,8.05
2022-10-05T01:29:32.547Z,8.50
2022-10-05T01:32:31.159Z,7.57
2022-10-05T01:35:22.942Z,7.90
2022-10-05T01:38:03.979Z,6.75
2022-10-05T01:41:04.667Z,6.57
2022-10-05T01:43:39.639Z,6.90
2022-10-05T01:46:08.083Z,6.65
2022-10-05T01:48:40.499Z,6.80
2022-10-05T01:51:14.696Z,7.68
2022-10-05T01:53:46.139Z,7.32
2022-10-05T01:56:12.390Z,6.80
2022-10-05T01:58:52.825Z,6.55
2022-10-05T02:01:18.307Z,6.55
2022-10-05T02:04:08.792Z,7.00
2022-10-05T02:06:37.633Z,7.00
2022-10-05T02:09:05.892Z,6.73
2022-10-05T02:11:28.485Z,6.90
2022-10-05T02:14:06.247Z,7.35
2022-10-05T02:16:48.962Z,6.80
2022-10-05T02:19:27.664Z,7.43
2022-10-05T02:22:05.413Z,7.27
2022-10-05T02:24:36.096Z,7.50
2022-10-05T02:26:58.948Z,7.10
2022-10-05T02:29:24.570Z,8.20
2022-10-05T02:32:00.198Z,7.72
2022-10-05T02:34:27.091Z,6.97
2022-10-05T02:37:06.703Z,6.78
2022-10-05T02:39:52.511Z,7.55
2022-10-05T02:42:27.844Z,7.22
2022-10-05T02:44:56.742Z,7.45
2022-10-05T02:47:56.712Z,6.90
2022-10-05T02:50:32.761Z,6.78
2022-10-05T02:53:16.760Z,7.25
2022-10-05T02:56:21.609Z,7.00
2022-10-05T02:59:19.476Z,7.13
2022-10-05T03:01:45.311Z,7.07
2022-10-05T03:04:14.833Z,6.45
2022-10-05T03:06:51.969Z,6.60
2022-10-05T03:09:18.226Z,6.93
2022-10-05T03:11:46.551Z,6.82
2022-10-05T03:14:26.235Z,6.97
2022-10-05T03:17:23.644Z,6.88
2022-10-05T03:20:00.262Z,6.50
2022-10-05T03:22:44.345Z,6.30
2022-10-05T03:25:24.980Z,7.07
2022-10-05T03:27:57.863Z,6.60
2022-10-05T03:30:23.440Z,6.65
2022-10-05T03:33:26.800Z,7.10
2022-10-05T03:36:02.237Z,6.70
2022-10-05T03:38:55.350Z,7.07
2022-10-05T03:41:28.191Z,6.57
2022-10-05T03:43:59.850Z,6.93
2022-10-05T03:46:56.452Z,7.40
2022-10-05T03:49:27.051Z,6.97
2022-10-05T03:51:59.997Z,7.00
2022-10-05T03:54:28.813Z,6.87
2022-10-05T03:57:10.323Z,7.10
2022-10-05T03:59:40.570Z,7.70
2022-10-05T04:02:31.298Z,7.07
2022-10-05T04:05:17.195Z,7.22
2022-10-05T04:08:12.965Z,7.33
2022-10-05T04:10:46.699Z,7.30
2022-10-05T04:13:15.957Z,6.97
2022-10-05T04:15:50.450Z,7.45
2022-10-05T04:18:29.065Z,7.43
2022-10-05T04:20:57.452Z,6.73
2022-10-05T04:23:41.208Z,7.35
2022-10-05T04:26:09.877Z,7.15
2022-10-05T04:28:47.324Z,7.50
2022-10-05T04:31:21.426Z,7.30
2022-10-05T04:33:54.360Z,7.50
2022-10-05T04:36:24.431Z,7.32
2022-10-05T04:39:05.347Z,7.15
2022-10-05T04:41:43.701Z,7.57
2022-10-05T04:44:12.407Z,7.35
2022-10-05T04:46:45.061Z,7.23
2022-10-05T04:49:46.784Z,8.07
2022-10-05T04:52:09.528Z,7.03
2022-10-05T04:54:52.313Z,7.63
2022-10-05T04:57:23.665Z,7.18
2022-10-05T05:00:05.732Z,7.10
2022-10-05T05:02:39.338Z,7.03
2022-10-05T05:05:20.381Z,7.55
2022-10-05T05:08:09.080Z,7.25
2022-10-05T05:10:38.894Z,9.15
2022-10-05T05:13:33.866Z,9.10
2022-10-05T05:16:16.201Z,8.45
2022-10-05T05:18:58.633Z,8.00
2022-10-05T05:21:38.057Z,7.65
2022-10-05T05:24:38.639Z,8.10
2022-10-05T05:27:35.883Z,7.63
2022-10-05T05:30:14.949Z,7.90
2022-10-05T05:32:57.874Z,7.75
2022-10-05T05:35:43.698Z,8.20
2022-10-05T05:38:51.422Z,7.60
2022-10-05T05:41:34.801Z,7.63
2022-10-05T05:44:06.680Z,7.47
2022-10-05T05:46:58.271Z,7.55
2022-10-05T05:49:38.148Z,7.40
2022-10-05T05:52:12.472Z,7.65
2022-10-05T05:54:52.551Z,7.43
2022-10-05T05:57:33.694Z,7.60
2022-10-05T06:00:29.069Z,7.38
2022-10-05T06:03:28.362Z,6.75
2022-10-05T06:06:00.741Z,7.07
2022-10-05T06:08:50.395Z,7.03
2022-10-05T06:11:40.267Z,7.45
2022-10-05T06:14:13.137Z,7.07
2022-10-05T06:16:49.728Z,7.45
2022-10-05T06:19:16.661Z,7.20
2022-10-05T06:21:48.336Z,6.67
2022-10-05T06:24:34.876Z,7.30
2022-10-05T06:27:17.435Z,7.55
2022-10-05T06:30:11.650Z,7.65
2022-10-05T06:33:13.620Z,8.57
2022-10-05T06:36:15.335Z,7.87
2022-10-05T06:39:09.345Z,8.38
2022-10-05T06:41:54.961Z,8.27
2022-10-05T06:44:49.250Z,8.68
2022-10-05T06:47:25.504Z,9.82
2022-10-05T06:50:18.612Z,10.03
2022-10-05T06:53:05.332Z,11.43
2022-10-05T06:55:41.254Z,11.07
2022-10-05T06:58:05.318Z,11.57
2022-10-05T07:00:49.735Z,11.05
2022-10-05T07:03:24.661Z,11.10
2022-10-05T07:06:37.940Z,10.43
2022-10-05T07:09:01.960Z,10.93
2022-10-05T07:11:37.912Z,10.63
2022-10-05T07:14:01.489Z,10.02
2022-10-05T07:17:01.486Z,10.30
2022-10-05T07:19:33.536Z,9.48
2022-10-05T07:22:15.130Z,9.95
2022-10-05T07:24:47.641Z,10.10
2022-10-05T07:27:18.513Z,10.48
2022-10-05T07:30:06.701Z,10.37
2022-10-05T07:32:34.976Z,10.23
2022-10-05T07:35:44.133Z,11.10
2022-10-05T07:38:40.519Z,10.10
2022-10-05T07:41:51.228Z,10.00
2022-10-05T07:44:29.086Z,8.60
2022-10-05T07:47:15.410Z,9.13
2022-10-05T07:50:01.749Z,9.32
2022-10-05T07:53:00.804Z,9.55
2022-10-05T07:55:27.471Z,10.23
2022-10-05T07:58:15.171Z,10.03
2022-10-05T08:01:22.107Z,9.32
2022-10-05T08:03:58.621Z,9.88
2022-10-05T08:06:42.374Z,10.45
2022-10-05T08:09:46.558Z,9.98
2022-10-05T08:12:37.763Z,9.20
2022-10-05T08:15:03.667Z,10.23
2022-10-05T08:17:40.356Z,10.18
2022-10-05T08:20:24.179Z,9.50
2022-10-05T08:22:51.459Z,9.00
2022-10-05T08:25:26.699Z,8.63
2022-10-05T08:28:15.478Z,8.85
2022-10-05T08:30:55.117Z,9.25
2022-10-05T08:33:20.278Z,8.85
2022-10-05T08:35:48.091Z,8.77
2022-10-05T08:38:18.553Z,8.90
2022-10-05T08:40:57.055Z,8.10
2022-10-05T08:43:31.744Z,7.65
2022-10-05T08:46:22.503Z,6.68
2022-10-05T08:49:21.007Z,7.03
2022-10-05T08:51:56.861Z,6.60
2022-10-05T08:54:39.314Z,6.93
2022-10-05T08:57:13.772Z,7.05
2022-10-05T08:59:54.619Z,6.82
2022-10-05T09:02:42.964Z,6.65
2022-10-05T09:05:36.565Z,6.90
2022-10-05T09:08:26.631Z,6.43
2022-10-05T09:10:55.269Z,6.13
2022-10-05T09:13:36.092Z,6.32
2022-10-05T09:16:20.566Z,5.78
2022-10-05T09:19:13.464Z,5.73
2022-10-05T09:21:48.959Z,5.30
2022-10-05T09:24:14.738Z,5.57
2022-10-05T09:26:40.777Z,5.40
2022-10-05T09:29:39.085Z,6.07
2022-10-05T09:32:16.760Z,5.63
2022-10-05T09:34:55.675Z,5.75
2022-10-05T09:37:28.732Z,5.53
2022-10-05T09:40:21.411Z,5.30
2022-10-05T09:43:02.514Z,5.20
2022-10-05T09:45:28.343Z,5.50
2022-10-05T09:48:09.715Z,5.00
2022-10-05T09:50:38.165Z,5.72
2022-10-05T09:53:24.831Z,5.78
2022-10-05T09:56:01.353Z,5.68
2022-10-05T09:58:33.376Z,5.47
2022-10-05T10:01:29.134Z,5.30
2022-10-05T10:04:07.174Z,5.13
2022-10-05T10:06:54.706Z,5.07
2022-10-05T10:09:38.503Z,4.90
2022-10-05T10:12:18.367Z,5.33
2022-10-05T10:15:18.450Z,5.07
2022-10-05T10:17:56.207Z,5.28
2022-10-05T10:20:26.948Z,4.90
2022-10-05T10:23:28.925Z,4.63
2022-10-05T10:26:09.223Z,4.33
2022-10-05T10:28:52.195Z,4.88
2022-10-05T10:31:34.170Z,4.50
2022-10-05T10:34:14.415Z,4.07
2022-10-05T10:36:52.397Z,5.32
2022-10-05T10:39:40.369Z,4.70
2022-10-05T10:42:29.955Z,4.72
2022-10-05T10:45:48.737Z,4.10
2022-10-05T10:48:54.613Z,4.30
2022-10-05T10:51:39.568Z,4.85
2022-10-05T10:54:56.254Z,4.43
2022-10-05T10:57:44.371Z,4.35
2022-10-05T11:00:27.216Z,3.85
2022-10-05T11:03:35.860Z,3.65
2022-10-05T11:06:13.380Z,3.55
2022-10-05T11:08:38.705Z,3.37
2022-10-05T11:11:15.811Z,3.70
2022-10-05T11:14:02.987Z,4.05
2022-10-05T11:16:46.817Z,3.10
2022-10-05T11:19:35.130Z,3.05
2022-10-05T11:22:21.989Z,3.00
2022-10-05T11:25:19.857Z,3.13
2022-10-05T11:28:04.629Z,2.70
2022-10-05T11:30:46.244Z,2.55
2022-10-05T11:33:14.378Z,2.78
2022-10-05T11:35:52.371Z,2.53
2022-10-05T11:38:58.297Z,2.40
2022-10-05T11:42:11.728Z,2.40
2022-10-05T11:45:12.045Z,2.67
2022-10-05T11:47:45.661Z,2.50
2022-10-05T11:50:21.184Z,2.63
2022-10-05T11:52:57.102Z,2.80
2022-10-05T11:55:42.746Z,2.55
2022-10-05T11:58:23.082Z,2.67
2022-10-05T12:01:06.480Z,2.50
2022-10-05T12:03:35.297Z,2.50
2022-10-05T12:06:26.861Z,2.55
2022-10-05T12:09:17.407Z,2.30
2022-10-05T12:11:57.890Z,2.33
2022-10-05T12:14:54.516Z,2.70
2022-10-05T12:17:38.663Z,2.17
2022-10-05T12:20:27.881Z,2.33
2022-10-05T12:22:58.729Z,2.20
2022-10-05T12:25:40.920Z,2.00
2022-10-05T12:28:11.456Z,2.35
2022-10-05T12:30:52.792Z,2.30
2022-10-05T12:33:18.789Z,2.15
2022-10-05T12:36:05.845Z,2.33
2022-10-05T12:38:33.559Z,1.80
2022-10-05T12:41:04.969Z,2.42
2022-10-05T12:43:47.689Z,2.13
2022-10-05T12:46:47.087Z,2.13
2022-10-05T12:49:37.330Z,2.00
2022-10-05T12:52:06.386Z,2.20
2022-10-05T12:54:36.800Z,2.38
2022-10-05T12:57:14.844Z,2.27
2022-10-05T12:59:59.572Z,2.10
2022-10-05T13:02:30.613Z,2.22
2022-10-05T13:05:11.643Z,2.83
2022-10-05T13:07:34.232Z,2.67
2022-10-05T13:10:03.017Z,2.50
2022-10-05T13:12:40.857Z,2.50
2022-10-05T13:15:34.483Z,2.55
2022-10-05T13:18:13.028Z,2.70
2022-10-05T13:20:46.957Z,2.70
2022-10-05T13:23:31.409Z,2.60
2022-10-05T13:26:08.829Z,2.95
2022-10-05T13:28:42.262Z,2.50
2022-10-05T13:31:27.027Z,2.67
2022-10-05T13:34:21.710Z,2.75
2022-10-05T13:36:47.044Z,2.70
2022-10-05T13:39:15.655Z,2.30
2022-10-05T13:41:59.735Z,2.50
2022-10-05T13:44:48.322Z,2.40
2022-10-05T13:47:16.990Z,2.70
2022-10-05T13:53:21.937Z,2.30
2022-10-05T13:56:06.744Z,2.47
2022-10-05T13:58:41.282Z,3.20
2022-10-05T14:01:13.360Z,2.88
2022-10-05T14:03:38.061Z,2.67
2022-10-05T14:06:05.490Z,2.65
2022-10-05T14:08:45.882Z,2.50
2022-10-05T14:11:23.497Z,2.53
2022-10-05T14:13:47.857Z,2.90
2022-10-05T14:16:13.281Z,2.50
2022-10-05T14:18:38.153Z,2.60
2022-10-05T14:21:12.795Z,2.58
2022-10-05T14:23:35.900Z,2.80
2022-10-05T14:25:58.466Z,2.63
2022-10-05T14:28:34.988Z,2.40
2022-10-05T14:31:16.237Z,2.90
2022-10-05T14:33:39.532Z,3.20
2022-10-05T14:36:02.547Z,5.20
2022-10-05T14:38:29.476Z,2.70
2022-10-05T14:41:19.852Z,2.83
2022-10-05T14:43:59.708Z,2.75
2022-10-05T14:46:29.577Z,2.80
2022-10-05T14:49:17.185Z,3.05
2022-10-05T14:51:42.176Z,3.03
2022-10-05T14:54:53.939Z,2.80
2022-10-05T14:57:36.151Z,3.13
2022-10-05T15:00:01.548Z,3.20
2022-10-05T15:02:54.204Z,3.38
2022-10-05T15:05:37.955Z,3.38
2022-10-05T15:08:17.384Z,3.30
2022-10-05T15:10:52.097Z,3.00
2022-10-05T15:13:21.936Z,3.20
2022-10-05T15:15:57.540Z,3.40
2022-10-05T15:18:34.917Z,3.30
2022-10-05T15:21:12.328Z,3.43
2022-10-05T15:23:53.229Z,4.28
2022-10-05T15:26:39.514Z,4.40
2022-10-05T15:29:14.163Z,3.80
2022-10-05T15:31:40.797Z,3.83
2022-10-05T15:34:09.418Z,3.37
2022-10-05T15:36:56.649Z,3.95
2022-10-05T15:39:35.888Z,3.80
2022-10-05T15:42:03.436Z,3.40
2022-10-05T15:44:47.382Z,4.40
2022-10-05T15:47:19.167Z,3.30
2022-10-05T15:50:21.680Z,3.38
2022-10-05T15:52:50.130Z,3.45
2022-10-05T15:55:44.023Z,3.00
2022-10-05T15:58:31.384Z,3.10
2022-10-05T16:01:03.805Z,3.40
2022-10-05T16:03:48.628Z,3.25
2022-10-05T16:06:51.820Z,3.60
2022-10-05T16:09:24.560Z,2.92
2022-10-05T16:12:09.820Z,3.47
2022-10-05T16:14:41.259Z,3.90
2022-10-05T16:17:26.948Z,3.90
2022-10-05T16:19:57.540Z,4.40
2022-10-05T16:22:43.402Z,4.03
2022-10-05T16:25:34.942Z,3.85
2022-10-05T16:28:05.326Z,3.70
2022-10-05T16:30:32.313Z,3.60
2022-10-05T16:33:11.989Z,3.67
2022-10-05T16:36:12.083Z,3.55
2022-10-05T16:38:54.290Z,3.47
2022-10-05T16:41:41.200Z,3.47
2022-10-05T16:44:37.764Z,3.72
2022-10-05T16:47:12.380Z,3.60
2022-10-05T16:49:46.908Z,3.50
2022-10-05T16:52:18.994Z,3.67
2022-10-05T16:55:06.324Z,3.87
2022-10-05T16:57:37.724Z,3.78
2022-10-05T17:00:20.505Z,4.18
2022-10-05T17:03:06.198Z,4.30
2022-10-05T17:05:31.677Z,4.80
2022-10-05T17:08:13.116Z,4.63
2022-10-05T17:10:57.084Z,4.95
2022-10-05T17:13:36.300Z,4.97
2022-10-05T17:16:10.762Z,4.78
2022-10-05T17:18:39.268Z,4.78
2022-10-05T17:21:25.415Z,5.10
2022-10-05T17:23:54.853Z,5.10
2022-10-05T17:26:59.706Z,5.20
2022-10-05T17:29:47.724Z,5.22
2022-10-05T17:32:16.094Z,5.90
2022-10-05T17:35:02.465Z,5.63
2022-10-05T17:38:15.492Z,5.30
2022-10-05T17:40:39.189Z,5.50
2022-10-05T17:43:17.191Z,5.72
2022-10-05T17:45:42.639Z,6.20
2022-10-05T17:48:08.951Z,5.60
2022-10-05T17:51:06.094Z,6.45
2022-10-05T17:53:54.113Z,6.43
2022-10-05T17:56:16.712Z,6.47
2022-10-05T17:58:54.716Z,6.85
2022-10-05T18:01:35.749Z,6.70
2022-10-05T18:04:13.518Z,7.03
2022-10-05T18:06:37.883Z,6.78
2022-10-05T18:09:20.979Z,7.18
2022-10-05T18:11:45.215Z,7.13
2022-10-05T18:14:16.035Z,7.00
2022-10-05T18:16:57.208Z,7.43
2022-10-05T18:19:22.517Z,7.43
2022-10-05T18:22:00.963Z,7.13
2022-10-05T18:24:29.868Z,7.93
2022-10-05T18:27:03.732Z,7.43
2022-10-05T18:29:44.771Z,7.22
2022-10-05T18:32:34.891Z,7.40
2022-10-05T18:35:08.157Z,6.95
2022-10-05T18:37:37.231Z,7.35
2022-10-05T18:40:31.677Z,7.00
2022-10-05T18:43:26.637Z,7.20
2022-10-05T18:46:26.823Z,6.80
2022-10-05T18:49:15.401Z,6.88
2022-10-05T18:51:56.768Z,7.05
2022-10-05T18:54:28.072Z,6.73
2022-10-05T18:56:52.928Z,7.00
2022-10-05T18:59:26.957Z,6.65
2022-10-05T19:01:54.508Z,6.68
2022-10-05T19:04:26.478Z,6.75
2022-10-05T19:06:49.024Z,7.00
2022-10-05T19:09:39.467Z,7.03
2022-10-05T19:12:18.199Z,6.57
2022-10-05T19:14:56.522Z,6.20
2022-10-05T19:17:41.240Z,6.25
2022-10-05T19:20:18.650Z,6.53
2022-10-05T19:23:27.518Z,6.22
2022-10-05T19:26:13.904Z,6.70
2022-10-05T19:28:56.099Z,6.18
2022-10-05T19:31:30.243Z,6.22
2022-10-05T19:34:09.063Z,6.23
2022-10-05T19:36:48.968Z,6.28
2022-10-05T19:39:37.151Z,6.55
2022-10-05T19:42:22.653Z,6.72
2022-10-05T19:45:18.744Z,6.20
2022-10-05T19:48:27.210Z,6.67
2022-10-05T19:50:55.944Z,6.88
2022-10-05T19:53:25.588Z,6.50
2022-10-05T19:55:48.208Z,6.75
2022-10-05T19:58:32.288Z,6.85
2022-10-05T20:00:58.418Z,6.40
2022-10-05T20:03:29.813Z,6.60
2022-10-05T20:05:54.626Z,6.88
2022-10-05T20:08:19.898Z,6.50
2022-10-05T20:10:43.204Z,6.90
2022-10-05T20:13:08.657Z,6.90
2022-10-05T20:15:54.783Z,6.70
2022-10-05T20:18:55.993Z,6.68
2022-10-05T20:21:39.637Z,6.63
2022-10-05T20:24:20.315Z,6.90
2022-10-05T20:27:08.799Z,7.50
2022-10-05T20:29:40.579Z,6.82
2022-10-05T20:32:15.283Z,7.43
2022-10-05T20:34:46.788Z,6.95
2022-10-05T20:37:11.537Z,7.40
2022-10-05T20:39:34.112Z,7.47
2022-10-05T20:41:56.853Z,10.57
2022-10-05T20:44:19.544Z,12.02
2022-10-05T20:46:42.195Z,14.25
2022-10-05T20:49:04.875Z,15.35
2022-10-05T20:51:30.618Z,15.43
2022-10-05T20:53:56.211Z,14.88
2022-10-05T20:56:20.125Z,14.85
2022-10-05T20:58:44.230Z,12.20
2022-10-05T21:01:19.977Z,12.10
2022-10-05T21:03:42.883Z,9.63
2022-10-05T21:06:11.111Z,9.30
2022-10-05T21:08:36.995Z,10.57
2022-10-05T21:10:59.487Z,10.18
2022-10-05T21:13:22.052Z,9.82
2022-10-05T21:15:44.916Z,9.63
2022-10-05T21:18:07.390Z,9.27
2022-10-05T21:20:29.965Z,9.77
2022-10-05T21:22:52.528Z,9.50
2022-10-05T21:25:15.108Z,8.98
2022-10-05T21:27:41.308Z,9.17
2022-10-05T21:30:06.501Z,8.95
2022-10-05T21:32:29.159Z,9.32
2022-10-05T21:34:51.699Z,9.00
2022-10-05T21:37:15.547Z,9.20
2022-10-05T21:39:38.910Z,8.60
2022-10-05T21:42:01.599Z,8.45
2022-10-05T21:44:24.053Z,8.65
2022-10-05T21:46:47.137Z,8.60
2022-10-05T21:49:09.864Z,8.00
2022-10-05T21:51:35.380Z,7.93
2022-10-05T21:54:02.780Z,7.90
2022-10-05T21:56:30.367Z,7.70
2022-10-05T21:58:52.884Z,7.95
2022-10-05T22:01:20.146Z,8.00
2022-10-05T22:03:45.137Z,7.60
2022-10-05T22:06:08.152Z,8.38
2022-10-05T22:08:35.073Z,8.60
2022-10-05T22:10:59.020Z,8.85
2022-10-05T22:13:26.755Z,8.65
2022-10-05T22:15:49.550Z,8.83
2022-10-05T22:18:17.602Z,10.07
2022-10-05T22:20:41.101Z,9.75
2022-10-05T22:23:07.537Z,9.70
2022-10-05T22:25:33.811Z,9.75
2022-10-05T22:27:56.495Z,9.90
2022-10-05T22:30:20.055Z,9.30
2022-10-05T22:32:43.975Z,9.27
2022-10-05T22:35:11.326Z,9.35
2022-10-05T22:37:38.187Z,8.57
2022-10-05T22:40:02.696Z,8.73
2022-10-05T22:42:25.888Z,9.10
2022-10-05T22:44:48.528Z,8.55
2022-10-05T22:47:11.354Z,8.35
2022-10-05T22:49:34.004Z,8.77
2022-10-05T22:51:56.591Z,8.37
2022-10-05T22:54:19.270Z,8.80
2022-10-05T22:56:41.915Z,8.90
2022-10-05T22:59:05.623Z,9.13
2022-10-05T23:01:29.811Z,9.43
2022-10-05T23:03:52.460Z,9.17
2022-10-05T23:06:17.833Z,9.27
2022-10-05T23:08:41.672Z,8.75
2022-10-05T23:11:12.859Z,8.85
2022-10-05T23:13:35.738Z,8.70
2022-10-05T23:15:58.256Z,8.40
2022-10-05T23:18:20.821Z,7.93
2022-10-05T23:20:43.458Z,8.02
2022-10-05T23:23:06.062Z,7.68
2022-10-05T23:25:28.636Z,7.82
2022-10-05T23:27:51.573Z,7.77
2022-10-05T23:30:14.306Z,9.05
2022-10-05T23:32:41.444Z,9.05
2022-10-05T23:35:04.427Z,8.55
2022-10-05T23:37:28.025Z,9.05
2022-10-05T23:39:50.548Z,8.90
2022-10-05T23:42:14.377Z,8.20
2022-10-05T23:44:36.881Z,7.95
2022-10-05T23:46:59.568Z,8.05
2022-10-05T23:49:22.217Z,8.88
2022-10-05T23:51:45.158Z,8.03
2022-10-05T23:54:07.656Z,8.35
2022-10-05T23:56:30.327Z,8.23
2022-10-05T23:58:52.815Z,8.35
